createdAt,value
2023-04-01T00:01:19.115Z,6.45
2023-04-01T00:03:47.660Z,6.43
2023-04-01T00:06:18.537Z,6.45
2023-04-01T00:08:47.871Z,6.48
2023-04-01T00:11:16.976Z,6.53
2023-04-01T00:13:45.577Z,6.55
2023-04-01T00:16:21.659Z,6.52
2023-04-01T00:18:52.022Z,6.51
2023-04-01T00:21:21.686Z,6.52
2023-04-01T00:23:51.874Z,6.55
2023-04-01T00:26:22.587Z,6.57
2023-04-01T00:28:51.351Z,6.54
2023-04-01T00:31:20.140Z,6.55
2023-04-01T00:33:49.238Z,6.56
2023-04-01T00:36:20.577Z,6.59
2023-04-01T00:38:49.052Z,6.63
2023-04-01T00:41:18.929Z,6.66
2023-04-01T00:43:49.987Z,6.68
2023-04-01T00:46:19.193Z,6.68
2023-04-01T00:48:57.062Z,6.70
2023-04-01T00:51:30.479Z,6.73
2023-04-01T00:54:03.000Z,6.77
2023-04-01T00:56:56.977Z,6.81
2023-04-01T00:59:28.964Z,6.86
2023-04-01T01:01:57.137Z,6.89
2023-04-01T01:04:36.676Z,6.94
2023-04-01T01:07:24.954Z,6.97
2023-04-01T01:10:16.315Z,6.99
2023-04-01T01:13:07.745Z,6.98
2023-04-01T01:15:51.134Z,6.98
2023-04-01T01:18:55.662Z,6.96
2023-04-01T01:21:47.068Z,6.94
2023-04-01T01:24:43.425Z,6.91
2023-04-01T01:28:11.579Z,6.86
2023-04-01T01:31:10.815Z,6.81
2023-04-01T01:33:45.305Z,6.78
2023-04-01T01:36:16.126Z,6.79
2023-04-01T01:38:46.500Z,6.80
2023-04-01T01:41:18.823Z,6.81
2023-04-01T01:43:50.241Z,6.84
2023-04-01T01:46:24.470Z,6.85
2023-04-01T01:48:54.408Z,6.87
2023-04-01T01:51:24.611Z,6.89
2023-04-01T01:53:53.146Z,6.93
2023-04-01T01:56:28.457Z,6.97
2023-04-01T01:59:02.500Z,6.99
2023-04-01T02:01:34.374Z,7.01
2023-04-01T02:04:12.381Z,7.01
2023-04-01T02:06:49.089Z,6.99
2023-04-01T02:09:18.073Z,6.95
2023-04-01T02:11:54.468Z,6.91
2023-04-01T02:15:13.078Z,6.89
2023-04-01T02:17:45.966Z,6.86
2023-04-01T02:20:16.045Z,6.84
2023-04-01T02:22:50.789Z,6.81
2023-04-01T02:25:26.205Z,6.78
2023-04-01T02:27:56.254Z,6.75
2023-04-01T02:30:26.843Z,6.72
2023-04-01T02:32:58.036Z,6.69
2023-04-01T02:35:27.241Z,6.68
2023-04-01T02:37:56.243Z,6.68
2023-04-01T02:40:25.290Z,6.68
2023-04-01T02:42:53.798Z,6.70
2023-04-01T02:45:22.262Z,6.71
2023-04-01T02:47:50.888Z,6.72
2023-04-01T02:50:19.232Z,6.74
2023-04-01T02:52:47.461Z,6.76
2023-04-01T02:55:16.370Z,6.76
2023-04-01T02:57:44.728Z,6.76
2023-04-01T03:00:13.810Z,6.76
2023-04-01T03:02:42.527Z,6.77
2023-04-01T03:05:11.862Z,6.77
2023-04-01T03:07:40.483Z,6.78
2023-04-01T03:10:09.616Z,6.78
2023-04-01T03:12:38.061Z,6.78
2023-04-01T03:15:10.671Z,6.78
2023-04-01T03:17:42.600Z,6.75
2023-04-01T03:20:12.308Z,6.73
2023-04-01T03:22:42.872Z,6.72
2023-04-01T03:25:12.322Z,6.69
2023-04-01T03:27:40.888Z,6.65
2023-04-01T03:30:10.707Z,6.62
2023-04-01T03:32:43.857Z,6.61
2023-04-01T03:35:12.589Z,6.61
2023-04-01T03:37:41.286Z,6.62
2023-04-01T03:40:10.620Z,6.63
2023-04-01T03:42:39.116Z,6.64
2023-04-01T03:45:07.934Z,6.65
2023-04-01T03:47:36.985Z,6.64
2023-04-01T03:50:07.134Z,6.63
2023-04-01T03:52:35.917Z,6.63
2023-04-01T03:55:05.146Z,6.60
2023-04-01T03:57:33.644Z,6.58
2023-04-01T04:00:04.917Z,6.56
2023-04-01T04:02:42.474Z,6.54
2023-04-01T04:05:11.946Z,6.52
2023-04-01T04:07:40.482Z,6.52
2023-04-01T04:10:10.458Z,6.52
2023-04-01T04:12:39.053Z,6.54
2023-04-01T04:15:08.122Z,6.56
2023-04-01T04:17:36.848Z,6.60
2023-04-01T04:20:05.893Z,6.64
2023-04-01T04:22:34.225Z,6.67
2023-04-01T04:25:03.151Z,6.70
2023-04-01T04:27:31.705Z,6.73
2023-04-01T04:30:09.558Z,6.78
2023-04-01T04:32:38.506Z,6.83
2023-04-01T04:35:07.786Z,6.83
2023-04-01T04:37:36.451Z,6.77
2023-04-01T04:40:05.110Z,6.69
2023-04-01T04:42:33.995Z,6.65
2023-04-01T04:45:07.914Z,6.61
2023-04-01T04:47:36.623Z,6.60
2023-04-01T04:50:05.563Z,6.63
2023-04-01T04:52:34.598Z,6.70
2023-04-01T04:55:02.974Z,6.84
2023-04-01T04:57:31.391Z,6.99
2023-04-01T05:00:00.105Z,7.20
2023-04-01T05:02:47.960Z,7.52
2023-04-01T05:05:16.971Z,7.82
2023-04-01T05:07:45.764Z,8.11
2023-04-01T05:10:14.321Z,8.37
2023-04-01T05:12:42.730Z,8.63
2023-04-01T05:15:12.904Z,8.89
2023-04-01T05:17:42.130Z,9.16
2023-04-01T05:20:13.946Z,9.39
2023-04-01T05:22:42.606Z,9.55
2023-04-01T05:25:11.257Z,9.68
2023-04-01T05:27:40.002Z,9.80
2023-04-01T05:30:08.892Z,9.88
2023-04-01T05:32:48.470Z,9.97
2023-04-01T05:35:16.985Z,10.08
2023-04-01T05:37:45.504Z,10.20
2023-04-01T05:40:14.192Z,10.32
2023-04-01T05:42:42.697Z,10.45
2023-04-01T05:45:11.504Z,10.60
2023-04-01T05:48:18.158Z,10.75
2023-04-01T05:50:46.504Z,10.86
2023-04-01T05:53:15.969Z,10.98
2023-04-01T05:55:45.795Z,11.06
2023-04-01T05:58:15.517Z,11.12
2023-04-01T06:00:46.736Z,11.15
2023-04-01T06:03:18.535Z,11.20
2023-04-01T06:05:47.037Z,11.24
2023-04-01T06:08:20.326Z,11.28
2023-04-01T06:11:25.971Z,11.31
2023-04-01T06:14:10.256Z,11.37
2023-04-01T06:17:17.660Z,11.45
2023-04-01T06:20:27.507Z,11.56
2023-04-01T06:23:20.958Z,11.68
2023-04-01T06:26:01.165Z,11.79
2023-04-01T06:28:53.162Z,11.90
2023-04-01T06:31:28.005Z,12.03
2023-04-01T06:34:40.303Z,12.15
2023-04-01T06:37:46.664Z,12.30
2023-04-01T06:40:52.684Z,12.46
2023-04-01T06:43:32.808Z,12.55
2023-04-01T06:46:56.506Z,12.61
2023-04-01T06:50:17.393Z,12.63
2023-04-01T06:53:21.292Z,12.62
2023-04-01T06:56:14.396Z,12.59
2023-04-01T06:59:20.763Z,12.56
2023-04-01T07:02:29.007Z,12.52
2023-04-01T07:04:59.589Z,12.48
2023-04-01T07:07:39.427Z,12.46
2023-04-01T07:10:23.650Z,12.45
2023-04-01T07:13:34.366Z,12.45
2023-04-01T07:16:08.119Z,12.46
2023-04-01T07:18:51.681Z,12.49
2023-04-01T07:21:31.943Z,12.53
2023-04-01T07:24:08.177Z,12.61
2023-04-01T07:26:45.574Z,12.64
2023-04-01T07:29:17.597Z,12.62
2023-04-01T07:32:17.459Z,12.62
2023-04-01T07:34:47.002Z,12.61
2023-04-01T07:37:18.743Z,12.53
2023-04-01T07:39:59.874Z,12.39
2023-04-01T07:42:43.162Z,12.22
2023-04-01T07:45:18.351Z,12.12
2023-04-01T07:48:21.148Z,12.01
2023-04-01T07:51:04.651Z,11.89
2023-04-01T07:53:51.657Z,11.85
2023-04-01T07:56:37.277Z,11.82
2023-04-01T07:59:19.253Z,11.83
2023-04-01T08:02:05.860Z,11.82
2023-04-01T08:04:34.750Z,11.80
2023-04-01T08:07:26.517Z,11.82
2023-04-01T08:10:30.600Z,11.87
2023-04-01T08:14:05.186Z,11.93
2023-04-01T08:17:38.412Z,11.97
2023-04-01T08:20:19.003Z,12.05
2023-04-01T08:22:54.568Z,12.12
2023-04-01T08:25:33.669Z,12.20
2023-04-01T08:28:08.686Z,12.26
2023-04-01T08:31:00.155Z,12.34
2023-04-01T08:33:32.676Z,12.38
2023-04-01T08:36:29.862Z,12.45
2023-04-01T08:39:14.640Z,12.47
2023-04-01T08:42:17.531Z,12.53
2023-04-01T08:45:27.563Z,12.69
2023-04-01T08:48:10.005Z,12.97
2023-04-01T08:50:52.302Z,13.18
2023-04-01T08:53:36.876Z,13.30
2023-04-01T08:56:36.826Z,13.29
2023-04-01T08:59:25.587Z,13.10
2023-04-01T09:02:00.327Z,13.18
2023-04-01T09:05:19.099Z,13.17
2023-04-01T09:07:48.525Z,13.10
2023-04-01T09:10:21.260Z,13.01
2023-04-01T09:13:09.270Z,13.06
2023-04-01T09:15:53.379Z,13.08
2023-04-01T09:18:32.252Z,13.18
2023-04-01T09:21:13.274Z,13.32
2023-04-01T09:24:00.322Z,13.27
2023-04-01T09:26:50.162Z,13.26
2023-04-01T09:29:58.796Z,13.19
2023-04-01T09:32:55.419Z,13.02
2023-04-01T09:35:48.732Z,13.00
2023-04-01T09:38:33.472Z,12.94
2023-04-01T09:41:23.862Z,12.87
2023-04-01T09:44:21.382Z,12.85
2023-04-01T09:47:17.246Z,12.82
2023-04-01T09:50:18.157Z,12.84
2023-04-01T09:52:53.049Z,12.89
2023-04-01T09:55:52.675Z,12.91
2023-04-01T09:58:46.785Z,12.95
2023-04-01T10:01:53.965Z,13.00
2023-04-01T10:04:37.720Z,12.93
2023-04-01T10:07:40.547Z,12.80
2023-04-01T10:10:31.207Z,12.56
2023-04-01T10:13:32.401Z,12.38
2023-04-01T10:16:19.964Z,12.31
2023-04-01T10:18:48.736Z,12.29
2023-04-01T10:21:39.117Z,12.30
2023-04-01T10:24:43.424Z,12.36
2023-04-01T10:27:34.442Z,12.46
2023-04-01T10:30:43.517Z,12.60
2023-04-01T10:33:39.497Z,12.82
2023-04-01T10:36:45.946Z,12.95
2023-04-01T10:39:51.612Z,13.12
2023-04-01T10:43:14.662Z,13.27
2023-04-01T10:46:16.959Z,13.49
2023-04-01T10:49:10.626Z,13.77
2023-04-01T10:52:24.139Z,14.01
2023-04-01T10:55:36.210Z,14.32
2023-04-01T10:58:29.767Z,14.46
2023-04-01T11:01:47.071Z,14.60
2023-04-01T11:05:07.998Z,14.74
2023-04-01T11:08:07.279Z,14.85
2023-04-01T11:11:22.802Z,14.92
2023-04-01T11:14:13.144Z,14.98
2023-04-01T11:17:13.947Z,15.05
2023-04-01T11:20:15.154Z,15.13
2023-04-01T11:22:56.393Z,15.25
2023-04-01T11:25:50.674Z,15.40
2023-04-01T11:29:15.331Z,15.61
2023-04-01T11:32:05.583Z,15.77
2023-04-01T11:34:38.108Z,16.04
2023-04-01T11:37:38.578Z,16.31
2023-04-01T11:40:51.676Z,16.65
2023-04-01T11:44:00.425Z,16.87
2023-04-01T11:47:26.984Z,16.96
2023-04-01T11:50:12.400Z,16.90
2023-04-01T11:53:04.314Z,16.90
2023-04-01T11:55:39.051Z,16.99
2023-04-01T11:58:29.195Z,17.03
2023-04-01T12:01:28.271Z,17.11
2023-04-01T12:04:28.553Z,17.15
2023-04-01T12:07:21.761Z,17.13
2023-04-01T12:10:13.691Z,17.11
2023-04-01T12:13:04.523Z,17.14
2023-04-01T12:15:51.514Z,17.18
2023-04-01T12:18:24.870Z,17.22
2023-04-01T12:21:21.351Z,17.26
2023-04-01T12:23:56.514Z,17.16
2023-04-01T12:26:52.046Z,17.07
2023-04-01T12:29:30.337Z,16.96
2023-04-01T12:32:23.267Z,16.91
2023-04-01T12:35:02.316Z,16.82
2023-04-01T12:37:43.454Z,16.74
2023-04-01T12:40:40.035Z,16.63
2023-04-01T12:43:27.321Z,16.60
2023-04-01T12:46:08.907Z,16.61
2023-04-01T12:49:16.116Z,16.70
2023-04-01T12:52:02.363Z,16.85
2023-04-01T12:54:46.405Z,16.91
2023-04-01T12:57:34.680Z,17.05
2023-04-01T13:00:24.854Z,17.25
2023-04-01T13:03:08.719Z,17.40
2023-04-01T13:05:58.461Z,17.60
2023-04-01T13:08:42.667Z,17.76
2023-04-01T13:11:16.277Z,17.94
2023-04-01T13:14:25.004Z,18.14
2023-04-01T13:17:04.000Z,18.24
2023-04-01T13:20:05.053Z,18.28
2023-04-01T13:22:50.718Z,18.24
2023-04-01T13:25:40.753Z,18.16
2023-04-01T13:28:24.510Z,18.03
2023-04-01T13:31:02.159Z,17.86
2023-04-01T13:33:49.949Z,17.73
2023-04-01T13:36:38.243Z,17.61
2023-04-01T13:39:31.922Z,17.48
2023-04-01T13:42:39.044Z,17.36
2023-04-01T13:45:15.451Z,17.21
2023-04-01T13:47:59.217Z,17.11
2023-04-01T13:50:52.424Z,17.07
2023-04-01T13:54:20.944Z,17.01
2023-04-01T13:57:01.175Z,16.95
2023-04-01T13:59:48.727Z,16.92
2023-04-01T14:02:35.800Z,16.87
2023-04-01T14:05:16.226Z,16.80
2023-04-01T14:08:26.540Z,16.72
2023-04-01T14:11:03.907Z,16.49
2023-04-01T14:13:42.452Z,16.33
2023-04-01T14:16:23.091Z,16.15
2023-04-01T14:19:21.124Z,16.01
2023-04-01T14:22:04.594Z,15.85
2023-04-01T14:25:00.979Z,15.76
2023-04-01T14:27:40.001Z,15.66
2023-04-01T14:30:11.381Z,15.56
2023-04-01T14:32:57.164Z,15.44
2023-04-01T14:35:31.488Z,15.28
2023-04-01T14:38:26.141Z,15.19
2023-04-01T14:41:33.696Z,15.10
2023-04-01T14:44:28.847Z,15.04
2023-04-01T14:47:23.500Z,15.01
2023-04-01T14:50:06.961Z,14.99
2023-04-01T14:52:41.418Z,14.97
2023-04-01T14:55:47.446Z,14.96
2023-04-01T14:58:17.165Z,14.96
2023-04-01T15:00:50.944Z,14.96
2023-04-01T15:03:37.918Z,14.94
2023-04-01T15:06:28.157Z,14.91
2023-04-01T15:09:15.318Z,14.87
2023-04-01T15:12:08.448Z,14.85
2023-04-01T15:14:40.095Z,14.84
2023-04-01T15:17:22.232Z,14.84
2023-04-01T15:20:09.238Z,14.85
2023-04-01T15:22:57.360Z,14.79
2023-04-01T15:25:35.022Z,14.71
2023-04-01T15:28:42.325Z,14.66
2023-04-01T15:31:27.909Z,14.61
2023-04-01T15:33:59.555Z,14.55
2023-04-01T15:36:33.997Z,14.49
2023-04-01T15:39:21.352Z,14.42
2023-04-01T15:42:11.401Z,14.35
2023-04-01T15:45:20.685Z,14.28
2023-04-01T15:48:27.300Z,14.24
2023-04-01T15:51:19.093Z,14.21
2023-04-01T15:53:53.443Z,14.18
2023-04-01T15:57:00.251Z,14.17
2023-04-01T15:59:34.523Z,14.15
2023-04-01T16:02:02.994Z,14.14
2023-04-01T16:05:02.804Z,14.13
2023-04-01T16:08:00.406Z,14.10
2023-04-01T16:11:27.460Z,14.08
2023-04-01T16:14:34.249Z,14.13
2023-04-01T16:17:22.591Z,14.20
2023-04-01T16:20:13.785Z,14.24
2023-04-01T16:26:05.117Z,14.26
2023-04-01T16:29:04.497Z,14.26
2023-04-01T16:32:25.493Z,14.22
2023-04-01T16:36:01.266Z,14.12
2023-04-01T16:39:21.334Z,13.90
2023-04-01T16:42:27.733Z,13.74
2023-04-01T16:45:04.256Z,13.65
2023-04-01T16:47:55.691Z,13.58
2023-04-01T16:51:00.042Z,13.54
2023-04-01T16:53:37.708Z,13.45
2023-04-01T16:56:18.184Z,13.34
2023-04-01T16:59:35.709Z,13.18
2023-04-01T17:02:53.111Z,12.99
2023-04-01T17:05:35.096Z,12.90
2023-04-01T17:08:12.668Z,12.85
2023-04-01T17:10:53.944Z,12.82
2023-04-01T17:13:43.559Z,12.79
2023-04-01T17:16:18.973Z,12.77
2023-04-01T17:19:02.458Z,12.73
2023-04-01T17:21:47.744Z,12.61
2023-04-01T17:24:22.089Z,12.45
2023-04-01T17:27:00.606Z,12.17
2023-04-01T17:29:31.934Z,12.00
2023-04-01T17:32:02.799Z,11.85
2023-04-01T17:35:01.004Z,11.68
2023-04-01T17:37:42.164Z,11.48
2023-04-01T17:40:41.576Z,11.38
2023-04-01T17:43:15.962Z,11.23
2023-04-01T17:45:51.452Z,11.15
2023-04-01T17:48:31.780Z,11.14
2023-04-01T17:51:09.285Z,11.12
2023-04-01T17:54:14.496Z,11.09
2023-04-01T17:57:24.233Z,11.02
2023-04-01T18:00:17.151Z,10.98
2023-04-01T18:03:22.898Z,10.90
2023-04-01T18:06:18.983Z,10.79
2023-04-01T18:09:24.422Z,10.70
2023-04-01T18:12:01.652Z,10.54
2023-04-01T18:15:21.071Z,10.47
2023-04-01T18:18:13.526Z,10.41
2023-04-01T18:20:48.296Z,10.34
2023-04-01T18:23:38.436Z,10.30
2023-04-01T18:26:14.419Z,10.26
2023-04-01T18:29:01.162Z,10.26
2023-04-01T18:31:47.580Z,10.31
2023-04-01T18:34:53.133Z,10.35
2023-04-01T18:37:47.387Z,10.40
2023-04-01T18:40:25.495Z,10.43
2023-04-01T18:43:06.773Z,10.44
2023-04-01T18:45:42.756Z,10.46
2023-04-01T18:48:35.752Z,10.49
2023-04-01T18:51:26.815Z,10.50
2023-04-01T18:54:01.781Z,10.45
2023-04-01T18:56:32.781Z,10.41
2023-04-01T18:59:30.688Z,10.40
2023-04-01T19:02:21.801Z,10.39
2023-04-01T19:05:05.530Z,10.37
2023-04-01T19:07:51.290Z,10.34
2023-04-01T19:10:23.014Z,10.31
2023-04-01T19:12:51.507Z,10.25
2023-04-01T19:16:01.598Z,10.21
2023-04-01T19:18:53.625Z,10.17
2023-04-01T19:21:31.038Z,10.18
2023-04-01T19:24:21.686Z,10.19
2023-04-01T19:27:00.034Z,10.21
2023-04-01T19:30:11.958Z,10.26
2023-04-01T19:33:09.177Z,10.30
2023-04-01T19:35:43.150Z,10.32
2023-04-01T19:38:40.529Z,10.32
2023-04-01T19:41:26.669Z,10.32
2023-04-01T19:44:03.979Z,10.36
2023-04-01T19:46:42.752Z,10.39
2023-04-01T19:49:19.886Z,10.42
2023-04-01T19:51:52.641Z,10.43
2023-04-01T19:55:33.793Z,10.42
2023-04-01T19:58:06.871Z,10.35
2023-04-01T20:00:45.704Z,10.30
2023-04-01T20:04:05.083Z,10.28
2023-04-01T20:06:45.706Z,10.25
2023-04-01T20:09:33.012Z,10.26
2023-04-01T20:12:52.500Z,10.26
2023-04-01T20:15:23.926Z,10.27
2023-04-01T20:17:55.198Z,10.23
2023-04-01T20:20:28.381Z,10.16
2023-04-01T20:23:00.961Z,10.12
2023-04-01T20:25:33.405Z,10.08
2023-04-01T20:28:48.687Z,10.02
2023-04-01T20:31:26.239Z,9.92
2023-04-01T20:33:59.014Z,9.88
2023-04-01T20:36:52.182Z,9.87
2023-04-01T20:39:26.657Z,9.82
2023-04-01T20:42:23.060Z,9.79
2023-04-01T20:44:56.973Z,9.78
2023-04-01T20:47:52.935Z,9.79
2023-04-01T20:50:27.178Z,9.84
2023-04-01T20:53:56.789Z,9.84
2023-04-01T20:57:14.270Z,9.83
2023-04-01T21:04:14.818Z,9.82
2023-04-01T21:07:25.862Z,9.80
2023-04-01T21:10:45.041Z,9.80
2023-04-01T21:13:45.495Z,9.79
2023-04-01T21:17:28.496Z,9.79
2023-04-01T21:25:16.774Z,9.75
2023-04-01T21:28:26.938Z,9.77
2023-04-01T21:32:06.936Z,9.79
2023-04-01T21:35:34.442Z,9.76
2023-04-01T21:38:22.867Z,9.74
2023-04-01T21:44:56.411Z,9.73
2023-04-01T21:47:55.122Z,9.74
2023-04-01T21:50:45.494Z,9.73
2023-04-01T21:54:15.005Z,9.77
2023-04-01T21:57:35.893Z,9.76
2023-04-01T22:01:14.070Z,9.78
2023-04-01T22:04:05.389Z,9.77
2023-04-01T22:07:42.083Z,9.74
2023-04-01T22:11:23.924Z,9.75
2023-04-01T22:14:43.064Z,9.74
2023-04-01T22:17:20.312Z,9.73
2023-04-01T22:20:15.120Z,9.71
2023-04-01T22:23:08.866Z,9.71
2023-04-01T22:26:00.301Z,9.67
2023-04-01T22:28:34.003Z,9.59
2023-04-01T22:31:04.218Z,9.55
2023-04-01T22:34:07.402Z,9.51
2023-04-01T22:36:57.298Z,9.46
2023-04-01T22:39:56.249Z,9.40
2023-04-01T22:42:43.336Z,9.36
2023-04-01T22:45:15.101Z,9.32
2023-04-01T22:47:46.250Z,9.25
2023-04-01T22:50:54.876Z,9.24
2023-04-01T22:53:45.656Z,9.16
2023-04-01T22:57:22.901Z,9.14
2023-04-01T23:00:53.912Z,9.16
2023-04-01T23:04:14.086Z,9.07
2023-04-01T23:11:46.979Z,9.10
2023-04-01T23:14:41.642Z,9.07
2023-04-01T23:17:59.434Z,9.01
2023-04-01T23:20:56.647Z,9.03
2023-04-01T23:24:07.981Z,9.03
2023-04-01T23:27:55.525Z,9.01
2023-04-01T23:31:33.100Z,8.97
2023-04-01T23:34:04.847Z,8.91
2023-04-01T23:36:40.281Z,8.91
2023-04-01T23:39:32.053Z,8.88
2023-04-01T23:42:07.446Z,8.85
2023-04-01T23:44:37.409Z,8.84
2023-04-01T23:47:10.466Z,8.82
2023-04-01T23:49:49.031Z,8.78
2023-04-01T23:52:23.604Z,8.80
2023-04-01T23:55:54.635Z,8.76
2023-04-01T23:59:22.948Z,8.74
